Time;durP1;ratioP1;P1;durP2;ratioP2;P2;SDS_P1;SDS_P2;PMS_P1;PMS_P2;Temp;Humidity;BMP_temperature;BMP_pressure;BME280_temperature;BME280_humidity;BME280_pressure;Samples;Min_cycle;Max_cycle;Signal;HPM_P1;HPM_P2
2022/10/24 00:02:23;;;;;;;;;31.75;31.25;;;;;16.69;56.89;98446.06;4980354;28;104081;-58
2022/10/24 00:04:50;;;;;;;;;31.50;25.50;;;;;16.69;56.01;98443.34;4980095;28;102689;-58
2022/10/24 00:07:17;;;;;;;;;30.25;26.75;;;;;16.67;56.77;98440.00;4981780;28;102428;-58
2022/10/24 00:09:44;;;;;;;;;25.50;22.50;;;;;16.67;55.96;98430.97;4982299;28;102270;-58
2022/10/24 00:12:11;;;;;;;;;31.00;29.25;;;;;16.65;56.08;98433.16;4960486;28;104055;-59
2022/10/24 00:14:38;;;;;;;;;31.25;28.75;;;;;16.65;56.43;98446.81;4964423;28;103706;-57
2022/10/24 00:17:06;;;;;;;;;38.00;32.00;;;;;16.63;56.03;98441.56;4979936;28;102669;-57
2022/10/24 00:19:33;;;;;;;;;37.50;29.25;;;;;16.61;56.88;98438.28;4981789;28;103907;-57
2022/10/24 00:22:00;;;;;;;;;29.75;28.25;;;;;16.61;56.27;98438.28;4980482;28;104060;-58
2022/10/24 00:24:27;;;;;;;;;31.00;28.25;;;;;16.59;56.07;98426.75;4984383;28;102502;-59
2022/10/24 00:26:53;;;;;;;;;34.50;26.25;;;;;16.59;56.39;98440.41;4981917;28;102330;-57
2022/10/24 00:29:20;;;;;;;;;28.75;26.00;;;;;16.59;56.40;98456.78;4983629;28;102155;-57
2022/10/24 00:31:48;;;;;;;;;29.25;27.50;;;;;16.60;55.81;98463.06;4983054;28;104063;-58
2022/10/24 00:34:15;;;;;;;;;31.00;27.00;;;;;16.62;56.45;98453.56;4982620;28;103449;-58
2022/10/24 00:36:42;;;;;;;;;29.00;27.25;;;;;16.62;55.70;98459.03;4983651;28;102339;-58
2022/10/24 00:39:10;;;;;;;;;29.50;27.00;;;;;16.62;55.83;98456.28;4985339;28;102420;-57
2022/10/24 00:41:41;;;;;;;;;26.00;24.75;;;;;16.63;56.28;98449.75;4983087;28;104107;-57
2022/10/24 00:44:12;;;;;;;;;26.00;24.50;;;;;16.61;56.40;98443.72;4947402;28;102352;-57
2022/10/24 00:46:40;;;;;;;;;28.25;28.25;;;;;16.61;56.71;98454.66;4996895;28;102508;-58
2022/10/24 00:49:11;;;;;;;;;33.75;29.50;;;;;16.60;56.28;98453.00;4986745;28;102364;-58
2022/10/24 00:51:38;;;;;;;;;35.75;27.50;;;;;16.59;55.87;98451.31;4989580;28;108956;-58
2022/10/24 00:54:07;;;;;;;;;29.50;27.50;;;;;16.58;56.46;98449.66;4988844;28;102314;-58
2022/10/24 00:56:38;;;;;;;;;33.25;29.75;;;;;16.56;56.09;98449.06;4954621;28;102416;-58
2022/10/24 00:59:06;;;;;;;;;29.75;28.00;;;;;16.55;56.92;98432.91;4950382;28;102488;-58
2022/10/24 01:01:33;;;;;;;;;27.25;27.25;;;;;16.54;57.05;98453.91;4948335;28;104110;-58
2022/10/24 01:04:01;;;;;;;;;24.50;24.25;;;;;16.53;56.54;98464.00;4966956;28;102518;-58
2022/10/24 01:06:37;;;;;;;;;34.25;29.25;;;;;16.51;56.41;98460.72;4971737;28;102936;-58
2022/10/24 01:09:38;;;;;;;;;32.00;30.00;;;;;16.50;55.91;98456.31;4984020;28;102509;-58
2022/10/24 01:12:25;;;;;;;;;31.75;27.00;;;;;16.51;56.44;98462.59;4974541;28;108791;-60
2022/10/24 01:15:24;;;;;;;;;32.50;27.50;;;;;16.52;56.02;98445.97;4959358;28;102427;-58
2022/10/24 01:18:24;;;;;;;;;27.50;24.75;;;;;16.53;56.35;98446.78;4979625;28;102029;-58
2022/10/24 01:21:28;;;;;;;;;32.50;28.25;;;;;16.56;55.85;98445.50;4984473;28;102555;-58
2022/10/24 01:24:26;;;;;;;;;29.25;28.50;;;;;16.56;56.23;98429.13;4976555;28;107943;-57
2022/10/24 01:27:11;;;;;;;;;30.75;29.25;;;;;16.56;56.08;98427.22;4980218;28;102483;-58
2022/10/24 01:30:02;;;;;;;;;29.25;28.50;;;;;16.52;56.61;98424.13;4981859;28;102623;-58
2022/10/24 01:32:44;;;;;;;;;32.00;27.50;;;;;16.52;56.31;98434.25;4949024;28;102356;-57
2022/10/24 01:35:39;;;;;;;;;31.00;28.50;;;;;16.52;56.25;98431.50;4945675;28;108749;-58
2022/10/24 01:38:30;;;;;;;;;23.75;22.75;;;;;16.50;55.91;98431.75;4995457;28;103015;-58
2022/10/24 01:41:11;;;;;;;;;33.00;30.50;;;;;16.49;56.79;98429.25;4947203;28;102778;-58
2022/10/24 01:43:53;;;;;;;;;30.75;29.75;;;;;16.48;56.31;98433.88;4984886;28;102205;-58
2022/10/24 01:46:26;;;;;;;;;30.75;27.50;;;;;16.47;56.62;98428.69;4970065;28;108717;-58
2022/10/24 01:49:06;;;;;;;;;34.25;26.75;;;;;16.45;56.16;98426.19;4945166;28;102743;-58
2022/10/24 01:51:33;;;;;;;;;29.00;27.25;;;;;16.44;56.22;98415.50;4948609;28;102223;-58
2022/10/24 01:54:00;;;;;;;;;33.00;27.00;;;;;16.44;56.95;98416.34;4965100;28;102465;-58
2022/10/24 01:56:27;;;;;;;;;31.75;29.25;;;;;16.45;55.88;98418.00;4963441;28;104074;-58
2022/10/24 01:59:06;;;;;;;;;33.25;28.25;;;;;16.45;56.25;98431.66;4964843;28;102240;-58
2022/10/24 02:01:33;;;;;;;;;30.50;27.75;;;;;16.48;56.25;98433.03;4982356;28;102242;-58
2022/10/24 02:04:01;;;;;;;;;27.25;26.00;;;;;16.49;56.87;98423.78;4949253;28;102650;-58
2022/10/24 02:06:33;;;;;;;;;5.00;1.25;;;;;16.49;56.80;98423.78;4947623;28;104042;-58
2022/10/24 02:09:05;;;;;;;;;30.25;27.50;;;;;16.50;55.70;98420.00;4948924;28;102274;-58
2022/10/24 02:11:33;;;;;;;;;28.50;26.25;;;;;16.48;56.38;98420.22;4963503;28;102642;-59
2022/10/24 02:14:13;;;;;;;;;31.75;28.00;;;;;16.46;56.44;98427.84;4954998;28;102655;-58
2022/10/24 02:16:40;;;;;;;;;28.25;26.50;;;;;16.46;55.81;98424.28;4963920;28;108950;-58
2022/10/24 02:19:07;;;;;;;;;31.00;27.25;;;;;16.45;56.46;98428.06;4964800;28;104172;-59
2022/10/24 02:21:44;;;;;;;;;27.50;25.50;;;;;16.43;56.51;98425.63;4960898;28;102789;-59
2022/10/24 02:24:16;;;;;;;;;29.25;28.75;;;;;16.43;56.72;98435.69;4965007;28;102428;-58
2022/10/24 02:26:47;;;;;;;;;32.75;28.00;;;;;16.41;56.19;98429.63;4963647;28;108884;-59
2022/10/24 02:29:17;;;;;;;;;27.75;24.75;;;;;16.39;56.51;98429.06;4960091;28;102576;-58
2022/10/24 02:31:49;;;;;;;;;31.75;27.75;;;;;16.40;56.28;98422.53;4978142;28;102751;-58
2022/10/24 02:34:16;;;;;;;;;35.75;31.25;;;;;16.38;56.25;98425.50;4950046;28;102712;-58
2022/10/24 02:36:43;;;;;;;;;32.75;30.00;;;;;16.38;55.76;98424.69;4963930;28;104904;-58
2022/10/24 02:39:10;;;;;;;;;35.00;26.50;;;;;16.38;56.81;98416.50;4947655;28;102557;-58
2022/10/24 02:41:37;;;;;;;;;33.50;25.00;;;;;16.38;56.48;98416.50;4947652;28;102576;-58
2022/10/24 02:44:04;;;;;;;;;29.50;26.25;;;;;16.40;56.16;98411.59;4965632;28;102323;-59
2022/10/24 02:46:31;;;;;;;;;26.25;25.25;;;;;16.41;56.81;98399.63;4963141;28;104057;-58
2022/10/24 02:49:00;;;;;;;;;28.50;26.00;;;;;16.41;56.45;98405.06;4978574;28;102434;-58
2022/10/24 02:51:34;;;;;;;;;32.50;27.00;;;;;16.41;56.50;98411.38;4981448;28;102366;-58
2022/10/24 02:54:02;;;;;;;;;25.25;23.75;;;;;16.42;56.20;98412.19;4961766;28;102488;-58
2022/10/24 02:56:29;;;;;;;;;27.75;25.75;;;;;16.40;56.02;98403.41;4980357;28;104198;-58
2022/10/24 02:58:56;;;;;;;;;33.25;28.00;;;;;16.40;55.85;98392.50;4959902;28;102706;-59
2022/10/24 03:01:23;;;;;;;;;33.00;29.75;;;;;16.38;55.88;98379.13;4966934;28;102567;-58
2022/10/24 03:03:50;;;;;;;;;32.75;29.50;;;;;16.38;56.07;98373.66;4983777;28;102299;-58
2022/10/24 03:06:17;;;;;;;;;27.50;26.00;;;;;16.38;56.33;98390.03;4984564;28;104063;-58
2022/10/24 03:08:44;;;;;;;;;32.00;29.00;;;;;16.37;56.36;98380.19;4986976;28;102463;-59
2022/10/24 03:11:11;;;;;;;;;32.50;28.25;;;;;16.37;56.14;98393.00;4984818;28;103136;-58
2022/10/24 03:13:38;;;;;;;;;29.50;27.25;;;;;16.36;55.98;98394.06;4987138;28;102365;-58
2022/10/24 03:16:05;;;;;;;;;23.50;21.75;;;;;16.35;56.24;98395.97;4984657;28;104048;-58
2022/10/24 03:18:37;;;;;;;;;35.75;30.50;;;;;16.34;56.24;98405.25;4984389;28;102405;-58
2022/10/24 03:21:04;;;;;;;;;27.75;25.25;;;;;16.34;56.68;98404.41;4985152;28;102470;-58
2022/10/24 03:23:31;;;;;;;;;29.75;28.00;;;;;16.35;56.43;98411.50;4985096;28;102201;-58
2022/10/24 03:25:58;;;;;;;;;31.25;27.75;;;;;16.35;56.20;98406.88;4980310;28;104045;-58
2022/10/24 03:28:25;;;;;;;;;32.25;26.25;;;;;16.36;56.20;98403.06;4968645;28;102410;-58
2022/10/24 03:30:52;;;;;;;;;27.25;24.50;;;;;16.37;56.04;98412.94;4984353;28;102221;-58
2022/10/24 03:33:19;;;;;;;;;28.75;28.00;;;;;16.38;56.05;98405.56;4985364;28;102435;-58
2022/10/24 03:35:46;;;;;;;;;32.25;30.75;;;;;16.39;56.22;98412.69;4984426;28;104061;-59
2022/10/24 03:38:13;;;;;;;;;27.00;25.75;;;;;16.38;56.55;98400.13;4966874;28;102410;-58
2022/10/24 03:40:40;;;;;;;;;31.25;29.00;;;;;16.36;56.94;98375.78;4983162;28;102317;-58
2022/10/24 03:43:07;;;;;;;;;33.50;28.50;;;;;16.37;56.24;98403.91;4982086;28;102679;-59
2022/10/24 03:45:36;;;;;;;;;32.00;24.00;;;;;16.36;56.37;98394.06;4983418;28;104066;-57
2022/10/24 03:48:04;;;;;;;;;31.00;27.50;;;;;16.35;55.89;98384.22;4963215;28;102601;-56
2022/10/24 03:50:31;;;;;;;;;28.50;26.75;;;;;16.35;56.24;98397.84;4982416;28;103605;-59
2022/10/24 03:52:58;;;;;;;;;18.25;17.00;;;;;16.34;56.14;98404.41;4983365;28;102208;-59
2022/10/24 03:55:25;;;;;;;;;32.75;29.25;;;;;16.34;56.38;98407.13;4984325;28;104083;-58
2022/10/24 03:57:52;;;;;;;;;31.00;23.75;;;;;16.32;56.23;98412.81;4978606;28;102415;-59
2022/10/24 04:00:20;;;;;;;;;28.00;26.00;;;;;16.33;56.05;98408.19;4977926;28;102573;-58
2022/10/24 04:02:49;;;;;;;;;30.25;29.25;;;;;16.32;56.65;98401.06;4984332;28;102545;-59
2022/10/24 04:05:16;;;;;;;;;26.00;24.00;;;;;16.34;56.01;98396.22;4985703;28;104877;-58
2022/10/24 04:07:43;;;;;;;;;30.75;27.50;;;;;16.34;56.26;98394.31;4981243;28;104509;-59
2022/10/24 04:10:10;;;;;;;;;32.25;28.75;;;;;16.34;55.94;98394.31;4975596;28;102742;-58
2022/10/24 04:12:37;;;;;;;;;29.50;26.00;;;;;16.37;56.18;98398.44;4981852;28;102617;-58
2022/10/24 04:15:05;;;;;;;;;34.25;29.50;;;;;16.37;56.38;98390.25;4980944;28;104086;-57
2022/10/24 04:17:32;;;;;;;;;32.00;28.50;;;;;16.40;56.54;98395.22;4992931;28;102462;-58
2022/10/24 04:19:59;;;;;;;;;29.50;27.00;;;;;16.40;56.67;98387.88;4981151;28;102517;-58
2022/10/24 04:22:26;;;;;;;;;29.00;27.00;;;;;16.40;56.75;98387.03;4981427;28;102453;-58
2022/10/24 04:24:53;;;;;;;;;28.00;24.50;;;;;16.38;56.32;98387.31;4962869;28;104221;-58
2022/10/24 04:27:20;;;;;;;;;29.75;26.75;;;;;16.36;55.65;98392.16;4949897;28;102536;-59
2022/10/24 04:29:47;;;;;;;;;28.25;25.75;;;;;16.36;56.47;98389.44;4977121;28;102256;-57
2022/10/24 04:32:14;;;;;;;;;27.50;24.25;;;;;16.36;56.69;98386.72;4982296;28;102472;-58
2022/10/24 04:34:40;;;;;;;;;29.50;27.00;;;;;16.35;56.33;98389.66;4981556;28;104183;-59
2022/10/24 04:37:07;;;;;;;;;25.50;22.75;;;;;16.37;56.86;98393.00;4978484;28;102200;-58
2022/10/24 04:39:34;;;;;;;;;35.25;26.00;;;;;16.38;57.20;98391.94;4977878;28;104221;-59
2022/10/24 04:42:01;;;;;;;;;24.00;23.75;;;;;16.39;55.90;98388.13;4983072;28;102555;-58
2022/10/24 04:44:28;;;;;;;;;28.00;26.50;;;;;16.40;56.61;98381.59;4981124;28;104245;-59
2022/10/24 04:46:55;;;;;;;;;29.75;28.00;;;;;16.39;56.55;98369.84;4965437;28;102520;-59
2022/10/24 04:49:22;;;;;;;;;25.50;22.75;;;;;16.41;55.86;98362.25;4983087;28;102459;-59
2022/10/24 04:51:49;;;;;;;;;23.25;22.00;;;;;16.41;55.97;98351.34;4983832;28;102450;-59
2022/10/24 04:54:16;;;;;;;;;27.50;24.75;;;;;16.42;56.12;98360.34;4964324;28;104063;-59
2022/10/24 04:56:43;;;;;;;;;21.50;21.50;;;;;16.44;56.19;98363.66;4983425;28;104663;-59
2022/10/24 04:59:10;;;;;;;;;26.50;24.00;;;;;16.44;56.31;98363.66;4980095;28;102471;-59
2022/10/24 05:01:37;;;;;;;;;28.25;24.50;;;;;16.41;55.28;98359.53;4981451;27;102358;-58
2022/10/24 05:04:04;;;;;;;;;22.25;18.75;;;;;16.42;56.42;98365.81;4980414;28;104303;-58
2022/10/24 05:06:31;;;;;;;;;28.25;24.75;;;;;16.41;56.12;98354.06;4982397;28;102392;-59
2022/10/24 05:08:58;;;;;;;;;27.00;25.25;;;;;16.40;56.21;98362.47;4981956;28;109253;-58
2022/10/24 05:11:25;;;;;;;;;29.50;25.00;;;;;16.38;55.82;98356.47;4982311;28;102663;-58
2022/10/24 05:13:52;;;;;;;;;25.00;22.00;;;;;16.38;56.00;98368.22;4964434;28;104053;-58
2022/10/24 05:16:19;;;;;;;;;22.75;21.75;;;;;16.36;56.71;98370.34;4982276;28;102153;-59
2022/10/24 05:18:46;;;;;;;;;28.75;26.75;;;;;16.36;56.02;98366.78;4950334;28;102465;-58
2022/10/24 05:21:13;;;;;;;;;25.25;21.50;;;;;16.36;55.80;98369.50;4967387;28;102591;-58
2022/10/24 05:23:40;;;;;;;;;28.25;23.75;;;;;16.36;56.31;98364.03;4965863;28;109044;-58
2022/10/24 05:26:07;;;;;;;;;28.00;26.00;;;;;16.36;56.04;98366.78;4983600;28;102493;-58
2022/10/24 05:28:34;;;;;;;;;23.75;23.50;;;;;16.35;55.54;98367.84;4983441;28;102170;-58
2022/10/24 05:31:01;;;;;;;;;26.50;24.00;;;;;16.37;55.86;98382.09;4984722;28;102449;-58
2022/10/24 05:33:28;;;;;;;;;24.25;23.00;;;;;16.38;55.61;98381.00;4982815;28;104765;-58
2022/10/24 05:35:55;;;;;;;;;22.75;22.25;;;;;16.40;55.87;98381.59;4980706;28;102351;-58
2022/10/24 05:38:22;;;;;;;;;23.50;22.00;;;;;16.41;55.73;98369.59;4982950;28;102564;-58
2022/10/24 05:40:50;;;;;;;;;31.25;26.25;;;;;16.42;55.87;98374.81;4966548;28;102294;-58
2022/10/24 05:43:17;;;;;;;;;23.25;21.25;;;;;16.43;55.76;98392.03;4971435;28;103960;-58
2022/10/24 05:45:45;;;;;;;;;24.00;22.50;;;;;16.44;56.00;98382.75;4983678;28;102311;-58
2022/10/24 05:48:12;;;;;;;;;24.25;22.00;;;;;16.44;55.55;98380.03;4983370;28;103694;-58
2022/10/24 05:50:39;;;;;;;;;27.75;24.75;;;;;16.43;56.14;98381.13;4985145;28;102372;-58
2022/10/24 05:53:07;;;;;;;;;22.75;22.25;;;;;16.43;55.90;98383.84;4964949;28;104266;-58
2022/10/24 05:55:35;;;;;;;;;27.00;25.25;;;;;16.43;55.85;98392.03;4983237;28;102390;-59
2022/10/24 05:58:02;;;;;;;;;26.25;26.00;;;;;16.43;56.02;98397.50;4983094;28;102535;-58
2022/10/24 06:00:29;;;;;;;;;25.25;22.50;;;;;16.43;56.44;98389.31;4965549;28;103127;-58
2022/10/24 06:02:56;;;;;;;;;23.25;21.00;;;;;16.42;55.81;98393.09;4981606;28;103516;-57
2022/10/24 06:05:23;;;;;;;;;23.25;21.25;;;;;16.43;56.42;98397.50;4981520;28;102299;-58
2022/10/24 06:07:50;;;;;;;;;26.50;23.00;;;;;16.42;56.01;98398.56;4978158;28;102681;-58
2022/10/24 06:10:17;;;;;;;;;23.50;22.25;;;;;16.40;55.89;98408.88;4983737;28;102473;-58
2022/10/24 06:12:43;;;;;;;;;27.50;23.00;;;;;16.42;55.73;98406.75;4981781;28;104035;-60
2022/10/24 06:15:11;;;;;;;;;27.00;22.75;;;;;16.45;56.14;98407.06;4980939;28;102376;-58
2022/10/24 06:17:38;;;;;;;;;21.50;19.00;;;;;16.48;55.94;98411.22;4981951;28;102483;-58
2022/10/24 06:20:05;;;;;;;;;23.00;21.50;;;;;16.50;55.11;98420.00;4982153;28;102582;-58
2022/10/24 06:22:32;;;;;;;;;24.75;20.75;;;;;16.52;55.18;98415.94;4980016;28;103499;-58
2022/10/24 06:25:00;;;;;;;;;22.50;20.00;;;;;16.55;55.98;98428.28;4981392;28;102345;-58
2022/10/24 06:27:27;;;;;;;;;27.50;22.50;;;;;16.56;55.06;98418.19;4981593;28;102377;-58
2022/10/24 06:29:54;;;;;;;;;25.75;22.50;;;;;16.58;55.80;98421.53;4984416;28;102150;-58
2022/10/24 06:32:21;;;;;;;;;24.50;21.25;;;;;16.58;55.99;98432.44;4982198;28;104452;-58
2022/10/24 06:34:48;;;;;;;;;21.50;20.00;;;;;16.57;56.15;98431.59;4984857;28;102527;-58
2022/10/24 06:37:15;;;;;;;;;23.25;22.75;;;;;16.58;55.55;98437.91;4985697;28;102411;-59
2022/10/24 06:39:42;;;;;;;;;20.50;20.50;;;;;16.58;54.93;98438.75;4966562;28;102135;-58
2022/10/24 06:42:09;;;;;;;;;24.00;23.00;;;;;16.59;55.78;98434.94;4985152;28;108803;-58
2022/10/24 06:44:37;;;;;;;;;21.50;19.50;;;;;16.58;55.01;98427.00;4968908;28;102233;-58
2022/10/24 06:47:05;;;;;;;;;23.25;22.25;;;;;16.59;55.76;98418.56;4964199;28;102235;-58
2022/10/24 06:49:32;;;;;;;;;27.00;24.00;;;;;16.61;55.28;98415.59;4967105;28;103093;-58
2022/10/24 06:51:59;;;;;;;;;21.50;19.50;;;;;16.61;54.94;98412.88;4964052;28;104071;-58
2022/10/24 06:54:26;;;;;;;;;25.25;23.25;;;;;16.61;55.80;98412.88;4965939;28;102458;-58
2022/10/24 06:56:56;;;;;;;;;21.75;20.25;;;;;16.62;55.20;98412.59;4966574;28;102133;-58
2022/10/24 06:59:23;;;;;;;;;22.50;20.50;;;;;16.62;55.16;98401.69;4953172;28;102282;-58
2022/10/24 07:01:50;;;;;;;;;24.50;20.25;;;;;16.64;56.08;98399.56;4949156;28;104070;-58
2022/10/24 07:04:17;;;;;;;;;25.75;22.75;;;;;16.66;56.05;98396.59;4956092;28;102498;-58
2022/10/24 07:06:44;;;;;;;;;22.50;21.75;;;;;16.65;55.79;98390.31;4964253;28;102800;-58
2022/10/24 07:09:11;;;;;;;;;25.50;20.75;;;;;16.65;55.48;98398.50;4966543;28;102622;-58
2022/10/24 07:11:41;;;;;;;;;21.25;19.00;;;;;16.67;55.50;98403.69;4963213;28;108768;-58
2022/10/24 07:14:08;;;;;;;;;22.00;20.25;;;;;16.68;55.14;98411.63;4964104;28;102768;-58
2022/10/24 07:16:35;;;;;;;;;21.50;21.25;;;;;16.67;55.21;98411.88;4966556;28;102364;-58
2022/10/24 07:19:03;;;;;;;;;24.25;21.00;;;;;16.69;55.57;98413.31;4967158;28;102150;-58
2022/10/24 07:21:30;;;;;;;;;24.25;22.25;;;;;16.70;55.11;98414.13;4947084;28;104077;-58
2022/10/24 07:23:58;;;;;;;;;20.25;20.25;;;;;16.69;54.73;98416.03;4965354;28;102151;-58
2022/10/24 07:26:25;;;;;;;;;23.00;20.00;;;;;16.70;55.51;98422.31;4965636;28;102339;-58
2022/10/24 07:28:53;;;;;;;;;17.50;15.25;;;;;16.71;54.94;98426.69;4965933;28;102711;-59
2022/10/24 07:31:22;;;;;;;;;26.25;22.00;;;;;16.71;55.35;98419.34;4964617;28;104213;-59
2022/10/24 07:33:50;;;;;;;;;20.25;19.75;;;;;16.71;55.27;98422.06;4964555;28;103067;-59
2022/10/24 07:36:21;;;;;;;;;19.75;16.00;;;;;16.72;55.23;98425.63;4963319;28;102559;-59
2022/10/24 07:38:49;;;;;;;;;22.00;20.25;;;;;16.72;55.54;98417.44;4966557;28;102160;-58
2022/10/24 07:41:16;;;;;;;;;19.00;18.50;;;;;16.73;54.84;98414.47;4963187;28;104169;-58
2022/10/24 07:43:44;;;;;;;;;19.75;19.25;;;;;16.74;55.40;98418.88;4964874;28;102362;-58
2022/10/24 07:46:13;;;;;;;;;19.50;17.25;;;;;16.74;54.85;98424.31;4964016;28;102138;-58
2022/10/24 07:48:41;;;;;;;;;23.25;20.50;;;;;16.75;55.75;98419.69;4985959;28;103082;-58
2022/10/24 07:51:09;;;;;;;;;18.25;17.00;;;;;16.76;55.08;98405.78;4967582;28;104204;-58
2022/10/24 07:53:36;;;;;;;;;24.25;19.75;;;;;16.76;55.18;98392.13;4966773;28;102294;-58
2022/10/24 07:56:09;;;;;;;;;20.25;19.50;;;;;16.76;55.20;98392.13;4983479;28;102141;-58
2022/10/24 07:58:36;;;;;;;;;21.00;17.75;;;;;16.78;55.25;98386.44;4986169;28;102468;-58
2022/10/24 08:01:10;;;;;;;;;20.25;20.00;;;;;16.79;55.43;98394.38;4983715;28;104086;-57
2022/10/24 08:03:37;;;;;;;;;18.00;15.50;;;;;16.79;55.36;98391.66;4975820;28;102615;-58
2022/10/24 08:06:05;;;;;;;;;18.00;17.25;;;;;16.81;55.22;98375.84;4986277;28;102211;-58
2022/10/24 08:08:32;;;;;;;;;18.25;15.75;;;;;16.82;55.25;98363.84;4980793;28;102322;-58
2022/10/24 08:11:20;;;;;;;;;17.25;15.50;;;;;16.83;55.05;98354.59;4984481;28;103935;-59
2022/10/24 08:13:48;;;;;;;;;18.50;16.75;;;;;16.85;55.32;98363.34;4966098;28;102501;-59
2022/10/24 08:16:15;;;;;;;;;16.75;15.00;;;;;16.85;55.31;98360.59;4983404;28;102440;-58
2022/10/24 08:18:43;;;;;;;;;18.00;17.00;;;;;16.86;55.42;98362.28;4967135;28;102620;-58
2022/10/24 08:21:11;;;;;;;;;18.25;16.00;;;;;16.86;55.38;98353.25;4984690;28;103744;-58
2022/10/24 08:23:40;;;;;;;;;20.00;18.50;;;;;16.88;54.62;98371.06;4966369;28;102428;-58
2022/10/24 08:26:08;;;;;;;;;17.00;15.50;;;;;16.86;55.29;98386.84;4974472;28;102361;-59
2022/10/24 08:28:35;;;;;;;;;16.25;15.50;;;;;16.88;55.31;98394.81;4986024;28;102513;-58
2022/10/24 08:31:04;;;;;;;;;20.00;18.50;;;;;16.88;55.61;98398.38;4965313;28;104281;-58
2022/10/24 08:33:31;;;;;;;;;15.00;15.00;;;;;16.89;54.91;98389.06;4967526;28;102415;-58
2022/10/24 08:35:59;;;;;;;;;17.50;15.75;;;;;16.90;55.00;98385.28;4980808;28;102442;-58
2022/10/24 08:38:27;;;;;;;;;15.75;15.00;;;;;16.90;55.48;98385.28;4984672;28;102337;-58
2022/10/24 08:40:54;;;;;;;;;16.00;15.00;;;;;16.90;55.21;98382.56;4982327;28;104113;-58
2022/10/24 08:43:21;;;;;;;;;13.25;13.00;;;;;16.91;54.85;98373.28;4966467;28;102355;-59
2022/10/24 08:46:14;;;;;;;;;19.50;17.50;;;;;16.93;55.28;98362.13;4966583;28;102366;-58
2022/10/24 08:48:44;;;;;;;;;16.75;15.75;;;;;16.92;54.95;98369.50;4958829;28;102344;-58
2022/10/24 08:51:41;;;;;;;;;17.00;14.00;;;;;16.93;55.09;98390.25;4962021;28;109273;-58
2022/10/24 08:54:13;;;;;;;;;12.00;12.00;;;;;16.93;55.02;98403.91;4958492;28;102267;-58
2022/10/24 08:56:40;;;;;;;;;16.25;13.75;;;;;16.94;54.86;98410.19;4935108;28;102576;-58
2022/10/24 08:59:09;;;;;;;;;15.00;15.00;;;;;16.94;54.66;98405.56;4963778;28;102602;-58
2022/10/24 09:01:47;;;;;;;;;16.00;13.75;;;;;16.95;55.34;98401.75;4946866;28;104020;-58
2022/10/24 09:04:16;;;;;;;;;18.75;15.00;;;;;16.94;55.56;98400.09;4946700;28;102325;-59
2022/10/24 09:06:43;;;;;;;;;19.00;15.00;;;;;16.95;55.86;98401.75;4946050;28;102465;-58
2022/10/24 09:09:23;;;;;;;;;16.00;14.00;;;;;16.97;54.78;98406.16;4966110;28;102205;-58
2022/10/24 09:12:10;;;;;;;;;14.50;13.00;;;;;16.97;55.13;98396.06;4962403;28;109368;-58
2022/10/24 09:14:38;;;;;;;;;12.75;10.25;;;;;16.97;55.29;98384.31;4961787;28;102639;-58
2022/10/24 09:17:43;;;;;;;;;13.75;12.75;;;;;16.98;55.21;98372.28;4963009;28;102329;-58
2022/10/24 09:20:25;;;;;;;;;15.25;14.50;;;;;16.98;54.98;98370.38;4903426;28;102759;-58
2022/10/24 09:22:52;;;;;;;;;14.75;13.00;;;;;16.98;55.17;98373.09;4879112;28;109553;-58
2022/10/24 09:25:21;;;;;;;;;15.75;13.25;;;;;16.99;55.37;98373.94;4908236;28;102190;-58
2022/10/24 09:27:48;;;;;;;;;14.50;12.75;;;;;16.99;54.79;98384.88;4963455;28;102624;-59
2022/10/24 09:30:18;;;;;;;;;15.00;14.00;;;;;17.00;54.96;98394.72;4980579;28;102240;-59
2022/10/24 09:32:45;;;;;;;;;14.75;13.50;;;;;16.99;54.94;98391.16;4963991;28;104217;-59
2022/10/24 09:35:23;;;;;;;;;11.25;11.25;;;;;17.00;54.66;98386.53;4962897;28;102400;-58
2022/10/24 09:37:57;;;;;;;;;13.50;12.75;;;;;16.99;54.85;98385.69;4957806;28;102544;-58
2022/10/24 09:40:31;;;;;;;;;12.00;12.00;;;;;17.01;55.19;98393.66;4962659;28;102766;-58
2022/10/24 09:43:04;;;;;;;;;13.00;12.00;;;;;17.01;55.03;98399.13;4962604;28;104064;-60
2022/10/24 09:45:40;;;;;;;;;8.00;6.50;;;;;17.01;54.90;98410.88;4963010;28;102444;-60
2022/10/24 09:48:18;;;;;;;;;12.50;11.00;;;;;17.01;55.68;98402.69;4962343;28;102092;-58
2022/10/24 09:50:46;;;;;;;;;12.25;11.50;;;;;17.01;55.13;98397.22;4961345;28;102647;-60
2022/10/24 09:53:25;;;;;;;;;11.50;11.00;;;;;17.02;55.19;98390.66;4944877;28;104225;-59
2022/10/24 09:56:12;;;;;;;;;13.50;13.00;;;;;17.03;54.48;98391.50;4961658;28;102362;-60
2022/10/24 09:58:39;;;;;;;;;11.25;10.75;;;;;17.03;54.42;98386.03;4962713;28;102869;-60
2022/10/24 10:01:20;;;;;;;;;11.50;10.25;;;;;17.04;55.41;98384.97;4933912;28;102219;-60
2022/10/24 10:04:04;;;;;;;;;12.25;11.50;;;;;17.05;54.68;98387.44;4958355;28;107988;-59
2022/10/24 10:06:35;;;;;;;;;13.00;11.75;;;;;17.06;54.99;98396.47;4963786;28;102211;-59
2022/10/24 10:09:02;;;;;;;;;13.25;11.25;;;;;17.06;54.90;98401.94;4948162;28;102572;-59
2022/10/24 10:11:30;;;;;;;;;11.00;11.00;;;;;17.05;55.28;98403.84;4947289;28;102515;-59
2022/10/24 10:14:03;;;;;;;;;14.00;13.50;;;;;17.06;55.39;98391.00;4964014;28;103793;-59
2022/10/24 10:16:32;;;;;;;;;8.25;8.25;;;;;17.08;55.32;98383.38;4949730;28;102512;-59
2022/10/24 10:19:04;;;;;;;;;14.50;12.75;;;;;17.08;54.85;98375.19;4963893;28;102507;-58
2022/10/24 10:22:01;;;;;;;;;12.25;10.75;;;;;17.08;55.06;98367.00;4966799;28;102464;-59
2022/10/24 10:24:42;;;;;;;;;10.00;10.00;;;;;17.09;55.65;98377.69;4952106;28;108818;-58
2022/10/24 10:27:32;;;;;;;;;12.75;12.25;;;;;17.10;55.32;98392.16;4965047;28;102523;-58
2022/10/24 10:30:11;;;;;;;;;11.25;10.00;;;;;17.10;55.42;98400.38;4962838;28;102333;-58
2022/10/24 10:33:08;;;;;;;;;10.00;10.00;;;;;17.10;55.19;98392.16;4959011;28;102841;-59
2022/10/24 10:35:46;;;;;;;;;12.00;11.00;;;;;17.10;55.48;98395.72;4963812;28;108640;-59
2022/10/24 10:38:25;;;;;;;;;10.25;9.00;;;;;17.12;55.21;98384.53;4965575;28;102552;-59
2022/10/24 10:41:30;;;;;;;;;11.50;11.00;;;;;17.13;54.81;98381.56;4967142;28;102538;-59
2022/10/24 10:44:15;;;;;;;;;11.75;10.75;;;;;17.14;54.79;98382.41;4964893;28;102716;-59
2022/10/24 10:47:10;;;;;;;;;12.50;11.00;;;;;17.15;54.92;98384.06;4968828;28;108728;-59
2022/10/24 10:49:41;;;;;;;;;12.00;12.00;;;;;17.15;54.49;98382.16;4986266;28;102089;-59
2022/10/24 10:52:11;;;;;;;;;11.00;10.25;;;;;17.17;54.56;98392.81;4987484;28;102315;-58
2022/10/24 10:55:00;;;;;;;;;9.50;9.00;;;;;17.17;55.09;98381.91;4986811;28;102307;-58
2022/10/24 10:57:45;;;;;;;;;10.50;10.00;;;;;17.17;54.97;98385.47;4962518;28;108765;-58
2022/10/24 11:00:33;;;;;;;;;9.50;9.00;;;;;17.19;55.13;98379.75;4986136;28;102165;-59
2022/10/24 11:03:04;;;;;;;;;11.75;10.25;;;;;17.19;54.47;98374.28;4968256;28;102128;-59
2022/10/24 11:05:53;;;;;;;;;9.75;9.25;;;;;17.22;55.25;98373.78;4968860;28;102672;-59
2022/10/24 11:08:32;;;;;;;;;11.00;9.25;;;;;17.22;54.91;98374.63;4985569;28;108688;-60
2022/10/24 11:11:02;;;;;;;;;12.50;12.25;;;;;17.23;55.19;98357.16;4986926;28;102337;-59
2022/10/24 11:13:33;;;;;;;;;9.50;9.50;;;;;17.25;55.37;98356.88;4960843;28;102442;-60
2022/10/24 11:16:02;;;;;;;;;8.25;7.25;;;;;17.25;54.63;98357.72;4968763;28;102209;-59
2022/10/24 11:18:31;;;;;;;;;10.75;10.50;;;;;17.26;54.48;98359.38;4952460;28;104111;-59
2022/10/24 11:21:20;;;;;;;;;11.50;11.00;;;;;17.28;54.69;98353.66;4952450;28;102280;-60
2022/10/24 11:23:54;;;;;;;;;12.25;10.75;;;;;17.31;55.26;98353.16;4952907;28;102526;-57
2022/10/24 11:26:39;;;;;;;;;11.00;10.00;;;;;17.31;54.89;98347.69;4967946;28;102375;-57
2022/10/24 11:29:14;;;;;;;;;9.75;9.00;;;;;17.33;55.15;98343.66;4941666;28;104050;-58